Time;durP1;ratioP1;P1;durP2;ratioP2;P2;SDS_P1;SDS_P2;PMS_P1;PMS_P2;Temp;Humidity;BMP_temperature;BMP_pressure;BME280_temperature;BME280_humidity;BME280_pressure;Samples;Min_cycle;Max_cycle;Signal;HPM_P1;HPM_P2
2022/11/12 00:04:34;;;;;;;5.18;3.20;;;15.50;76.50;;;;;;10446922;28;20109;-58
2022/11/12 00:09:35;;;;;;;4.75;2.60;;;15.40;76.50;;;;;;10446377;28;20060;-60
2022/11/12 00:14:35;;;;;;;3.97;2.63;;;15.40;76.40;;;;;;10446802;28;20571;-59
2022/11/12 00:19:36;;;;;;;3.33;2.92;;;15.40;76.40;;;;;;10446609;28;20083;-59
2022/11/12 00:24:37;;;;;;;5.72;3.42;;;15.40;76.30;;;;;;10445811;28;20052;-58
2022/11/12 00:29:37;;;;;;;4.80;3.33;;;15.40;75.90;;;;;;10446767;28;20044;-58
2022/11/12 00:34:38;;;;;;;7.15;3.58;;;15.40;76.30;;;;;;10446920;28;20040;-59
2022/11/12 00:39:39;;;;;;;4.22;2.97;;;15.40;76.20;;;;;;10445610;28;20125;-59
2022/11/12 00:44:39;;;;;;;4.82;3.45;;;15.40;75.50;;;;;;10446612;28;20538;-59
2022/11/12 00:49:41;;;;;;;5.68;3.20;;;15.40;75.40;;;;;;10445481;28;20479;-58
2022/11/12 00:54:42;;;;;;;5.10;3.20;;;15.40;75.70;;;;;;10445381;28;20021;-59
2022/11/12 00:59:42;;;;;;;4.05;3.10;;;15.40;75.70;;;;;;10446800;28;20110;-57
2022/11/12 01:04:43;;;;;;;5.15;3.15;;;15.30;75.90;;;;;;10446422;28;20060;-59
2022/11/12 01:09:44;;;;;;;4.13;2.70;;;15.30;75.90;;;;;;10444466;28;20028;-59
2022/11/12 01:14:44;;;;;;;4.07;2.80;;;15.30;75.80;;;;;;10422802;28;20105;-59
2022/11/12 01:19:45;;;;;;;3.78;3.00;;;15.30;75.80;;;;;;10446428;28;20669;-59
2022/11/12 01:24:45;;;;;;;4.63;3.55;;;15.30;75.80;;;;;;10452921;28;20064;-58
2022/11/12 01:29:46;;;;;;;4.32;3.10;;;15.30;75.80;;;;;;10453569;28;20048;-58
2022/11/12 01:34:47;;;;;;;4.78;3.50;;;15.30;75.80;;;;;;10452654;28;20138;-57
2022/11/12 01:39:47;;;;;;;5.25;3.28;;;15.30;75.80;;;;;;10452837;28;20546;-59
2022/11/12 01:44:52;;;;;;;3.70;2.70;;;15.20;75.60;;;;;;10435821;28;20055;-59
2022/11/12 01:50:06;;;;;;;4.18;2.90;;;15.30;74.80;;;;;;10452357;28;20029;-60
2022/11/12 01:55:16;;;;;;;3.97;3.22;;;15.20;75.20;;;;;;10451668;28;20060;-58
2022/11/12 02:00:17;;;;;;;6.28;3.08;;;15.20;75.20;;;;;;10451983;28;20037;-58
2022/11/12 02:05:19;;;;;;;5.28;3.25;;;15.20;75.30;;;;;;10451410;28;20017;-58
2022/11/12 02:10:21;;;;;;;4.38;3.47;;;15.20;75.40;;;;;;10451677;28;20108;-59
2022/11/12 02:15:21;;;;;;;4.55;3.42;;;15.20;74.70;;;;;;10451271;28;20468;-59
2022/11/12 02:20:22;;;;;;;3.83;3.08;;;15.20;74.70;;;;;;10450400;28;20021;-58
2022/11/12 02:25:24;;;;;;;4.18;2.95;;;15.20;75.10;;;;;;10452306;28;20024;-58
2022/11/12 02:30:35;;;;;;;4.85;3.53;;;15.20;75.10;;;;;;10451188;28;20076;-59
2022/11/12 02:35:36;;;;;;;4.10;3.10;;;15.10;75.00;;;;;;10449309;28;20053;-57
2022/11/12 02:40:36;;;;;;;7.00;3.58;;;15.20;75.10;;;;;;10451350;28;20040;-58
2022/11/12 02:45:37;;;;;;;4.45;3.72;;;15.10;75.10;;;;;;10436724;28;20049;-59
2022/11/12 02:50:38;;;;;;;4.90;3.38;;;15.10;75.10;;;;;;10433630;28;20432;-58
2022/11/12 02:55:38;;;;;;;5.10;3.67;;;15.10;75.00;;;;;;10450604;28;20068;-59
2022/11/12 03:00:40;;;;;;;3.88;3.03;;;15.10;75.00;;;;;;10449851;28;20115;-59
2022/11/12 03:05:40;;;;;;;6.53;3.92;;;15.10;75.10;;;;;;10450429;28;20024;-57
2022/11/12 03:10:41;;;;;;;4.72;3.38;;;15.10;75.00;;;;;;10450651;28;20459;-58
2022/11/12 03:15:41;;;;;;;4.40;3.53;;;15.10;74.90;;;;;;10450259;28;20540;-58
2022/11/12 03:20:42;;;;;;;4.30;3.13;;;15.10;74.10;;;;;;10448755;28;20136;-57
2022/11/12 03:25:43;;;;;;;5.65;3.80;;;15.10;74.10;;;;;;10448477;28;20481;-59
2022/11/12 03:30:44;;;;;;;4.97;3.65;;;15.10;74.30;;;;;;10431871;28;20020;-59
2022/11/12 03:35:45;;;;;;;3.97;3.25;;;15.10;74.20;;;;;;10449057;28;20064;-57
2022/11/12 03:40:45;;;;;;;4.82;3.38;;;15.00;74.50;;;;;;10435802;28;20461;-58
2022/11/12 03:45:46;;;;;;;5.07;3.60;;;15.00;74.60;;;;;;10446921;28;20667;-58
2022/11/12 03:50:47;;;;;;;4.97;3.83;;;15.00;74.50;;;;;;10448943;28;20052;-58
2022/11/12 03:55:47;;;;;;;5.65;3.72;;;15.00;74.60;;;;;;10447387;28;20021;-58
2022/11/12 04:00:48;;;;;;;4.53;3.00;;;15.00;74.60;;;;;;10430707;28;20064;-60
2022/11/12 04:11:14;;;;;;;6.45;4.05;;;15.00;74.50;;;;;;10448256;28;20037;-60
2022/11/12 04:21:55;;;;;;;4.45;3.70;;;15.00;74.40;;;;;;10447528;28;20021;-59
2022/11/12 04:26:55;;;;;;;5.50;3.75;;;14.90;74.40;;;;;;10446331;28;20043;-59
2022/11/12 04:31:56;;;;;;;4.90;3.53;;;14.90;74.40;;;;;;10447526;28;20013;-57
2022/11/12 04:36:56;;;;;;;5.03;3.95;;;14.90;74.40;;;;;;10446361;28;20543;-58
2022/11/12 04:47:16;;;;;;;4.78;3.42;;;14.90;74.00;;;;;;10440175;28;20021;-58
2022/11/12 04:52:17;;;;;;;4.20;3.25;;;14.90;73.40;;;;;;10443650;28;20583;-59
2022/11/12 04:57:18;;;;;;;4.65;3.80;;;14.90;74.30;;;;;;10445316;28;20041;-58
2022/11/12 05:02:19;;;;;;;3.65;3.03;;;14.90;73.80;;;;;;10446115;28;20040;-59
2022/11/12 05:07:20;;;;;;;4.88;3.60;;;14.90;73.90;;;;;;10445118;28;20053;-59
2022/11/12 05:12:20;;;;;;;4.63;3.65;;;14.80;73.90;;;;;;10441869;28;20536;-57
2022/11/12 05:17:21;;;;;;;4.25;3.83;;;14.80;74.00;;;;;;10446172;28;20548;-58
2022/11/12 05:22:22;;;;;;;4.93;4.00;;;14.80;74.10;;;;;;10445480;28;20100;-59
2022/11/12 05:27:22;;;;;;;5.75;3.35;;;14.80;74.10;;;;;;10444321;28;20025;-58
2022/11/12 05:32:23;;;;;;;3.83;3.20;;;14.80;74.00;;;;;;10441822;28;20020;-59
2022/11/12 05:37:24;;;;;;;4.13;3.60;;;14.80;74.00;;;;;;10442352;28;20498;-58
2022/11/12 05:42:24;;;;;;;5.45;3.92;;;14.80;74.10;;;;;;10443331;28;20899;-58
2022/11/12 05:47:25;;;;;;;4.53;3.38;;;14.80;74.00;;;;;;10445929;28;20040;-58
2022/11/12 05:52:26;;;;;;;4.07;3.35;;;14.80;74.10;;;;;;10443622;28;20049;-59
2022/11/12 05:57:27;;;;;;;5.07;4.07;;;14.80;73.90;;;;;;10443811;28;20454;-58
2022/11/12 06:02:27;;;;;;;10.00;4.50;;;14.80;72.80;;;;;;10443887;28;20025;-58
2022/11/12 06:07:28;;;;;;;6.18;3.60;;;14.90;72.80;;;;;;10448288;28;20040;-60
2022/11/12 06:12:29;;;;;;;7.90;3.88;;;15.10;72.80;;;;;;10435786;28;20833;-60
2022/11/12 06:17:29;;;;;;;6.47;3.45;;;15.10;73.40;;;;;;10452752;28;20072;-58
2022/11/12 06:22:30;;;;;;;8.13;3.25;;;15.30;72.90;;;;;;10450858;28;20021;-57
2022/11/12 06:27:31;;;;;;;8.73;3.45;;;15.30;73.50;;;;;;10451458;28;20040;-58
2022/11/12 06:32:32;;;;;;;9.40;4.03;;;15.30;73.50;;;;;;10452014;28;20021;-58
2022/11/12 06:37:33;;;;;;;11.45;4.75;;;15.30;73.30;;;;;;10450633;28;20056;-57
2022/11/12 06:42:34;;;;;;;13.27;4.70;;;15.20;73.40;;;;;;10450596;28;20471;-60
2022/11/12 06:47:34;;;;;;;6.63;3.90;;;15.10;73.90;;;;;;10423217;28;20021;-58
2022/11/12 06:52:35;;;;;;;11.63;5.03;;;15.00;73.80;;;;;;10450719;28;20096;-57
2022/11/12 06:57:35;;;;;;;10.88;6.07;;;14.90;74.10;;;;;;10449797;28;20456;-56
2022/11/12 07:02:36;;;;;;;10.00;5.68;;;15.10;74.20;;;;;;10450101;28;20418;-59
2022/11/12 07:07:37;;;;;;;10.98;5.50;;;15.10;74.20;;;;;;10447768;28;20036;-58
2022/11/12 07:12:37;;;;;;;20.83;6.13;;;15.20;74.00;;;;;;10445875;28;20106;-58
2022/11/12 07:17:38;;;;;;;14.85;5.65;;;15.10;74.40;;;;;;10475753;28;20120;-57
2022/11/12 07:22:39;;;;;;;22.13;6.18;;;15.00;74.60;;;;;;10444970;28;20064;-58
2022/11/12 07:27:39;;;;;;;18.33;5.72;;;15.00;74.60;;;;;;10448353;28;20671;-57
2022/11/12 07:32:40;;;;;;;25.48;7.55;;;15.00;74.90;;;;;;10448299;28;20096;-58
2022/11/12 07:37:41;;;;;;;21.95;6.47;;;15.10;75.00;;;;;;10448640;28;20182;-57
2022/11/12 07:42:41;;;;;;;20.02;5.95;;;15.10;75.00;;;;;;10449639;28;20100;-58
2022/11/12 07:47:42;;;;;;;20.42;6.45;;;15.00;74.70;;;;;;10447650;28;20409;-58
2022/11/12 07:52:43;;;;;;;17.67;6.13;;;15.10;74.80;;;;;;10447844;28;20110;-59
2022/11/12 07:57:43;;;;;;;25.23;7.85;;;15.10;74.40;;;;;;10430597;28;20119;-60
2022/11/12 08:02:44;;;;;;;25.40;6.90;;;15.10;74.80;;;;;;10448698;28;20067;-61
2022/11/12 08:07:44;;;;;;;31.88;7.50;;;15.20;74.40;;;;;;10448094;28;20111;-60
2022/11/12 08:12:45;;;;;;;28.77;7.45;;;15.20;74.40;;;;;;10448101;28;20061;-60
2022/11/12 08:17:46;;;;;;;39.20;6.88;;;15.10;74.80;;;;;;10446620;28;20436;-60
2022/11/12 08:22:47;;;;;;;28.60;8.15;;;15.20;75.00;;;;;;10446405;28;20013;-60
2022/11/12 08:27:48;;;;;;;20.55;7.55;;;15.20;75.00;;;;;;10438879;28;20017;-63
2022/11/12 08:32:59;;;;;;;18.83;6.80;;;15.30;74.50;;;;;;10444223;28;20059;-61
2022/11/12 08:38:04;;;;;;;21.58;6.70;;;15.30;74.70;;;;;;10442062;28;20032;-62
2022/11/12 08:43:08;;;;;;;30.15;6.07;;;15.30;74.70;;;;;;10442422;28;20108;-68
2022/11/12 08:48:13;;;;;;;29.23;6.97;;;15.40;74.60;;;;;;10444804;28;20036;-62
2022/11/12 08:53:13;;;;;;;19.55;6.10;;;15.40;74.50;;;;;;10447061;28;20021;-61
2022/11/12 08:58:14;;;;;;;19.00;5.57;;;15.30;74.70;;;;;;10444920;28;20108;-62
2022/11/12 09:03:18;;;;;;;24.15;5.88;;;15.30;75.30;;;;;;10444971;28;20013;-62
2022/11/12 09:08:23;;;;;;;15.10;5.80;;;15.30;75.20;;;;;;10444970;28;20025;-61
2022/11/12 09:13:23;;;;;;;33.92;8.95;;;15.20;75.40;;;;;;10445259;28;20048;-61
2022/11/12 09:18:24;;;;;;;22.60;6.72;;;15.30;75.40;;;;;;10444531;28;20036;-63
2022/11/12 09:23:25;;;;;;;14.95;5.63;;;15.30;75.60;;;;;;10444726;28;20040;-64
2022/11/12 09:28:26;;;;;;;25.27;5.43;;;15.30;75.70;;;;;;10443652;28;20104;-62
2022/11/12 09:33:31;;;;;;;33.25;6.65;;;15.40;75.90;;;;;;10443788;28;20055;-64
2022/11/12 09:38:32;;;;;;;22.42;5.72;;;15.60;75.70;;;;;;10443384;28;20122;-62
2022/11/12 09:43:54;;;;;;;31.42;7.10;;;15.50;75.60;;;;;;10448518;28;20013;-62
2022/11/12 09:49:27;;;;;;;21.38;5.80;;;15.40;75.90;;;;;;10452271;28;20044;-61
2022/11/12 09:54:31;;;;;;;24.10;5.88;;;15.50;76.40;;;;;;10448488;28;20460;-64
2022/11/12 09:59:36;;;;;;;21.95;5.07;;;15.60;76.50;;;;;;10450695;28;20402;-63
2022/11/12 10:05:16;;;;;;;24.30;5.68;;;15.70;75.50;;;;;;10451257;28;20029;-62
2022/11/12 10:10:32;;;;;;;24.77;6.05;;;16.20;76.20;;;;;;10452376;28;20456;-61
2022/11/12 10:21:06;;;;;;;31.85;7.05;;;16.50;76.20;;;;;;10451235;28;20407;-64
2022/11/12 10:26:14;;;;;;;43.83;8.10;;;16.60;75.90;;;;;;10450504;28;20013;-63
2022/11/12 10:31:19;;;;;;;46.35;8.48;;;16.40;75.50;;;;;;10450884;28;20122;-62
2022/11/12 10:36:32;;;;;;;47.20;11.70;;;16.10;76.80;;;;;;10450574;28;20045;-63
2022/11/12 10:41:33;;;;;;;37.72;7.45;;;16.10;77.20;;;;;;10449995;28;20037;-66
2022/11/12 10:46:36;;;;;;;27.13;6.95;;;16.20;77.30;;;;;;10449828;28;20029;-63
2022/11/12 10:51:37;;;;;;;27.55;7.32;;;16.10;76.80;;;;;;10447981;28;20021;-63
2022/11/12 10:56:38;;;;;;;18.75;6.70;;;16.10;76.80;;;;;;10446214;28;20017;-62
2022/11/12 11:01:39;;;;;;;26.67;7.07;;;16.00;76.80;;;;;;10481463;28;20056;-63
2022/11/12 11:06:39;;;;;;;19.27;6.28;;;16.00;76.70;;;;;;10449006;28;20013;-63
2022/11/12 11:11:55;;;;;;;20.35;6.07;;;16.00;76.70;;;;;;10446771;28;20021;-63
2022/11/12 11:17:00;;;;;;;19.13;6.00;;;16.00;76.50;;;;;;10430134;28;20029;-62
2022/11/12 11:22:34;;;;;;;19.55;5.22;;;16.00;76.50;;;;;;10447608;28;20063;-63
2022/11/12 11:28:10;;;;;;;11.95;4.20;;;16.00;76.30;;;;;;10447949;28;20056;-63
2022/11/12 11:33:52;;;;;;;12.15;5.75;;;16.10;76.00;;;;;;10440826;28;20068;-63
2022/11/12 11:39:23;;;;;;;13.57;4.53;;;16.10;75.80;;;;;;10448578;28;20037;-63
2022/11/12 11:44:45;;;;;;;13.20;4.60;;;16.10;75.60;;;;;;10447576;28;20357;-63
2022/11/12 11:50:38;;;;;;;13.65;5.15;;;16.10;75.60;;;;;;10448053;28;20032;-62
2022/11/12 11:55:56;;;;;;;15.40;5.32;;;16.20;75.50;;;;;;10448340;28;20436;-64
2022/11/12 12:01:16;;;;;;;11.63;4.57;;;16.20;75.40;;;;;;10447058;28;20087;-62
2022/11/12 12:06:25;;;;;;;11.77;4.70;;;16.20;75.40;;;;;;10447541;28;20017;-63
2022/11/12 12:12:01;;;;;;;7.97;4.40;;;16.10;75.40;;;;;;10445919;28;20486;-62
2022/11/12 12:18:00;;;;;;;9.32;4.07;;;16.10;75.30;;;;;;10445877;28;20032;-62
2022/11/12 12:24:03;;;;;;;11.43;4.07;;;16.20;75.40;;;;;;10447531;28;20074;-63
2022/11/12 12:29:20;;;;;;;8.38;3.53;;;16.20;75.20;;;;;;10431426;28;20350;-62
2022/11/12 12:34:40;;;;;;;11.73;4.05;;;16.20;75.20;;;;;;10447066;28;20093;-63
2022/11/12 12:39:56;;;;;;;8.43;3.78;;;16.20;75.20;;;;;;10445224;28;20365;-62
2022/11/12 12:45:38;;;;;;;10.38;4.32;;;16.20;75.20;;;;;;10445391;28;20028;-63
2022/11/12 12:50:41;;;;;;;11.45;3.72;;;16.20;75.10;;;;;;10441539;28;20087;-62
2022/11/12 12:55:50;;;;;;;6.55;3.22;;;16.20;75.20;;;;;;10428537;28;20049;-63
2022/11/12 13:01:20;;;;;;;7.25;3.70;;;16.20;75.20;;;;;;10444694;28;20453;-63
2022/11/12 13:06:20;;;;;;;6.90;3.53;;;16.10;75.30;;;;;;10446160;28;20166;-63
2022/11/12 13:12:20;;;;;;;9.13;2.70;;;16.10;75.50;;;;;;10446233;28;20070;-62
2022/11/12 13:17:05;;;;;;;8.13;3.55;;;16.00;75.60;;;;;;10447872;28;20384;-62
2022/11/12 13:22:18;;;;;;;6.97;3.38;;;16.00;75.80;;;;;;10455130;28;20017;-62
2022/11/12 13:27:39;;;;;;;10.00;3.45;;;15.90;76.00;;;;;;10453586;28;20025;-63
2022/11/12 13:32:45;;;;;;;11.48;4.35;;;15.90;76.00;;;;;;10454151;28;20029;-62
2022/11/12 13:37:58;;;;;;;9.48;3.60;;;15.80;76.00;;;;;;10452837;28;20036;-63
2022/11/12 13:43:14;;;;;;;6.63;3.17;;;15.80;76.00;;;;;;10453660;28;20056;-63
2022/11/12 13:48:26;;;;;;;6.53;3.03;;;15.80;76.00;;;;;;10451463;28;20025;-62
2022/11/12 13:53:29;;;;;;;10.48;3.13;;;15.80;75.90;;;;;;10435346;28;20017;-62
2022/11/12 13:58:33;;;;;;;14.30;4.15;;;16.00;76.40;;;;;;10450655;28;20032;-61
2022/11/12 14:03:45;;;;;;;26.20;6.25;;;16.30;75.90;;;;;;10451656;28;20013;-64
2022/11/12 14:09:21;;;;;;;31.38;5.50;;;16.40;76.70;;;;;;10451246;28;20352;-58
2022/11/12 14:15:25;;;;;;;22.33;4.72;;;16.20;75.90;;;;;;10450528;28;20080;-62
2022/11/12 14:20:35;;;;;;;16.33;4.50;;;16.50;76.70;;;;;;10425178;28;20384;-61
2022/11/12 14:25:49;;;;;;;23.13;5.13;;;16.60;76.50;;;;;;10455914;28;20035;-62
2022/11/12 14:30:50;;;;;;;12.75;4.30;;;16.60;76.90;;;;;;10460651;28;20009;-61
2022/11/12 14:35:53;;;;;;;17.75;5.10;;;16.60;77.40;;;;;;10449894;28;20484;-61
2022/11/12 14:41:17;;;;;;;28.50;4.63;;;16.70;77.10;;;;;;10449813;28;20040;-59
2022/11/12 14:46:26;;;;;;;32.63;6.03;;;16.70;77.00;;;;;;10447825;28;20013;-58
2022/11/12 14:51:30;;;;;;;35.90;6.28;;;16.40;78.20;;;;;;10448910;28;20108;-58
2022/11/12 14:56:46;;;;;;;30.52;7.68;;;16.30;78.90;;;;;;10448502;28;20047;-59
2022/11/12 15:02:20;;;;;;;26.50;5.63;;;16.20;79.00;;;;;;10448542;28;20101;-60
2022/11/12 15:07:34;;;;;;;28.77;5.80;;;16.30;79.30;;;;;;10432777;28;20581;-60
2022/11/12 15:12:35;;;;;;;28.27;6.20;;;16.20;79.30;;;;;;10447066;28;20028;-60
2022/11/12 15:17:36;;;;;;;32.30;6.90;;;16.20;79.60;;;;;;10448261;28;20341;-60
2022/11/12 15:22:37;;;;;;;47.90;7.10;;;16.20;79.70;;;;;;10431447;28;20454;-63
2022/11/12 15:27:41;;;;;;;40.88;7.80;;;16.30;79.70;;;;;;10446168;28;20017;-61
2022/11/12 15:32:42;;;;;;;32.65;6.45;;;16.20;79.30;;;;;;10447216;28;20025;-61
2022/11/12 15:37:43;;;;;;;45.00;8.02;;;16.20;79.60;;;;;;10447942;28;20075;-61
2022/11/12 15:42:46;;;;;;;28.98;7.85;;;16.10;79.70;;;;;;10446068;28;20036;-62
2022/11/12 15:47:47;;;;;;;27.70;6.80;;;16.30;78.70;;;;;;10447527;28;20032;-62
2022/11/12 15:52:48;;;;;;;30.55;6.80;;;16.20;79.00;;;;;;10446708;28;20516;-62
2022/11/12 15:57:51;;;;;;;19.52;5.53;;;16.10;79.10;;;;;;10446162;28;20465;-62
2022/11/12 16:03:11;;;;;;;22.85;6.05;;;15.90;78.90;;;;;;10449112;28;20009;-62
2022/11/12 16:08:12;;;;;;;;;;;15.90;79.00;;;;;;10447139;28;20152;-63
2022/11/12 16:13:30;;;;;;;22.05;5.85;;;15.80;78.70;;;;;;10449004;28;19972;-62
2022/11/12 16:18:31;;;;;;;16.88;5.55;;;15.70;78.70;;;;;;10449701;28;20029;-62
2022/11/12 16:23:31;;;;;;;20.38;4.47;;;15.70;78.60;;;;;;10450014;28;20483;-60
2022/11/12 16:28:33;;;;;;;17.58;4.97;;;15.70;78.50;;;;;;10450055;28;20106;-61
2022/11/12 16:33:34;;;;;;;17.55;5.22;;;15.70;78.40;;;;;;10448584;28;20064;-60
2022/11/12 16:38:34;;;;;;;12.75;4.50;;;15.70;78.20;;;;;;10448333;28;20059;-60
2022/11/12 16:43:35;;;;;;;15.80;5.10;;;15.70;78.10;;;;;;10447951;28;20103;-60
2022/11/12 16:48:37;;;;;;;12.75;4.70;;;15.70;78.20;;;;;;10452145;28;20021;-60
2022/11/12 16:53:37;;;;;;;9.50;4.45;;;15.70;78.00;;;;;;10432553;28;20029;-59
2022/11/12 16:58:39;;;;;;;10.25;4.18;;;15.70;78.00;;;;;;10447801;28;20052;-58
2022/11/12 17:03:40;;;;;;;12.63;4.75;;;15.60;78.10;;;;;;10444484;28;20083;-61
2022/11/12 17:08:40;;;;;;;12.27;4.40;;;15.60;78.00;;;;;;10447011;28;20534;-60
2022/11/12 17:13:42;;;;;;;14.38;5.45;;;15.60;77.60;;;;;;10448052;28;20033;-60
2022/11/12 17:18:43;;;;;;;13.70;5.57;;;15.60;77.40;;;;;;10438506;28;20044;-61
2022/11/12 17:23:43;;;;;;;12.07;5.20;;;15.60;77.00;;;;;;10443693;28;20109;-61
2022/11/12 17:28:45;;;;;;;29.67;6.32;;;15.60;77.10;;;;;;10443637;28;20021;-61
2022/11/12 17:33:51;;;;;;;18.30;8.80;;;15.70;76.80;;;;;;10444646;28;20037;-62
2022/11/12 17:38:57;;;;;;;21.08;5.95;;;15.70;78.10;;;;;;10445605;28;20516;-62
2022/11/12 17:43:59;;;;;;;14.65;5.53;;;16.00;78.80;;;;;;10444446;28;20025;-59
2022/11/12 17:49:00;;;;;;;17.27;6.10;;;16.10;78.70;;;;;;10428193;28;20017;-61
2022/11/12 17:54:01;;;;;;;19.15;5.13;;;16.10;78.70;;;;;;10443564;28;20025;-60
2022/11/12 17:59:02;;;;;;;18.52;5.63;;;16.10;78.30;;;;;;10443703;28;20031;-62
2022/11/12 18:04:03;;;;;;;14.88;6.65;;;16.00;78.30;;;;;;10448156;28;20017;-61
2022/11/12 18:09:07;;;;;;;14.90;5.53;;;16.00;78.40;;;;;;10452550;28;20694;-62
2022/11/12 18:14:09;;;;;;;16.58;5.68;;;16.00;78.20;;;;;;10451902;28;20017;-63
2022/11/12 18:19:11;;;;;;;16.25;5.68;;;15.90;78.30;;;;;;10452880;28;20480;-63
2022/11/12 18:24:15;;;;;;;15.18;5.38;;;15.90;78.30;;;;;;10451880;28;20464;-62
2022/11/12 18:29:16;;;;;;;15.27;5.10;;;15.90;78.40;;;;;;10450677;28;20029;-63
2022/11/12 18:34:17;;;;;;;8.73;4.57;;;15.90;78.30;;;;;;10449467;28;20086;-63
2022/11/12 18:39:17;;;;;;;11.90;4.82;;;15.90;78.10;;;;;;10450968;28;20104;-62
2022/11/12 18:44:18;;;;;;;11.52;5.18;;;15.90;78.30;;;;;;10483896;28;20057;-62
2022/11/12 18:49:19;;;;;;;22.77;5.65;;;16.00;78.40;;;;;;10450155;28;20106;-62
2022/11/12 18:54:19;;;;;;;10.35;4.13;;;16.00;78.10;;;;;;10465343;28;20036;-63
2022/11/12 18:59:22;;;;;;;10.75;5.07;;;15.90;78.20;;;;;;10432848;28;20029;-63
2022/11/12 19:04:23;;;;;;;9.90;5.90;;;15.80;78.00;;;;;;10446790;28;20067;-64
2022/11/12 19:09:24;;;;;;;12.27;5.57;;;15.80;78.10;;;;;;10445113;28;20079;-63
2022/11/12 19:14:25;;;;;;;15.20;4.57;;;15.80;78.10;;;;;;10427955;28;20014;-63
2022/11/12 19:19:25;;;;;;;12.07;3.95;;;15.70;78.20;;;;;;10430549;28;20063;-63
2022/11/12 19:24:26;;;;;;;10.43;5.20;;;15.70;78.30;;;;;;10431411;28;20634;-63
2022/11/12 19:29:26;;;;;;;10.73;4.53;;;15.70;78.40;;;;;;10448644;28;20056;-63
2022/11/12 19:34:27;;;;;;;7.85;4.32;;;15.70;78.20;;;;;;10431695;28;20072;-62
2022/11/12 19:39:28;;;;;;;6.68;4.28;;;15.70;78.30;;;;;;10449253;28;20128;-65
2022/11/12 19:44:28;;;;;;;10.00;4.03;;;15.70;78.30;;;;;;10447656;28;20040;-63
2022/11/12 19:49:29;;;;;;;9.13;3.80;;;15.70;78.10;;;;;;10448041;28;20017;-62
2022/11/12 19:54:30;;;;;;;12.40;4.57;;;15.70;78.50;;;;;;10447984;28;20104;-63
2022/11/12 19:59:30;;;;;;;8.45;4.47;;;15.60;77.90;;;;;;10448706;28;20517;-63
2022/11/12 20:04:31;;;;;;;10.63;4.93;;;15.60;78.00;;;;;;10430566;28;20057;-63
2022/11/12 20:09:32;;;;;;;10.52;4.65;;;15.50;78.00;;;;;;10429721;28;20021;-63
2022/11/12 20:14:32;;;;;;;8.93;4.82;;;15.50;78.00;;;;;;10446781;28;20107;-63
2022/11/12 20:19:33;;;;;;;10.02;5.05;;;15.50;77.90;;;;;;10429780;28;20612;-63
2022/11/12 20:24:34;;;;;;;8.70;4.80;;;15.50;77.80;;;;;;10446614;28;20028;-63
2022/11/12 20:29:34;;;;;;;8.35;5.00;;;15.40;77.80;;;;;;10446436;28;20120;-63
2022/11/12 20:34:35;;;;;;;10.02;4.28;;;15.40;77.70;;;;;;10445833;28;20080;-63
2022/11/12 20:39:36;;;;;;;7.50;5.03;;;15.40;77.60;;;;;;10479604;28;20065;-63
2022/11/12 20:44:37;;;;;;;7.63;4.68;;;15.40;77.60;;;;;;10445898;28;20040;-63
2022/11/12 20:49:37;;;;;;;6.93;4.57;;;15.40;77.50;;;;;;10445525;28;20041;-63
2022/11/12 20:54:38;;;;;;;6.60;4.78;;;15.40;77.40;;;;;;10445320;28;20448;-63
2022/11/12 20:59:40;;;;;;;6.43;4.40;;;15.30;77.30;;;;;;10446822;28;20072;-63
2022/11/12 21:04:40;;;;;;;6.97;4.15;;;15.30;77.30;;;;;;10428854;28;20014;-63
2022/11/12 21:09:42;;;;;;;7.07;4.70;;;15.30;77.20;;;;;;10445371;28;20100;-63
2022/11/12 21:14:42;;;;;;;6.88;4.15;;;15.40;77.30;;;;;;10444902;28;20086;-61
2022/11/12 21:19:43;;;;;;;7.05;3.70;;;15.30;77.20;;;;;;10429025;28;20122;-64
2022/11/12 21:24:43;;;;;;;7.57;4.47;;;15.30;77.10;;;;;;10446092;28;20017;-63
2022/11/12 21:29:44;;;;;;;7.40;4.88;;;15.20;77.00;;;;;;10428915;28;20100;-63
2022/11/12 21:34:45;;;;;;;7.47;4.65;;;15.20;77.00;;;;;;10427887;28;20763;-63
2022/11/12 21:39:48;;;;;;;6.30;3.70;;;15.20;76.90;;;;;;10449741;28;20069;-63
2022/11/12 21:44:48;;;;;;;8.23;4.40;;;15.20;76.80;;;;;;10453033;28;20013;-63
2022/11/12 21:49:49;;;;;;;9.02;4.85;;;15.20;76.90;;;;;;10452649;28;20106;-63
2022/11/12 21:54:50;;;;;;;6.00;3.88;;;15.20;76.80;;;;;;10452141;28;20108;-63
2022/11/12 21:59:50;;;;;;;7.65;4.65;;;15.20;76.80;;;;;;10435745;28;20681;-63
2022/11/12 22:04:51;;;;;;;5.57;3.50;;;15.20;76.70;;;;;;10451972;28;20057;-63
2022/11/12 22:09:52;;;;;;;5.53;4.30;;;15.20;76.80;;;;;;10449781;28;20056;-63
2022/11/12 22:14:52;;;;;;;5.82;3.30;;;15.20;76.60;;;;;;10452849;28;20543;-63
2022/11/12 22:19:53;;;;;;;6.90;4.38;;;15.10;76.60;;;;;;10452426;28;20063;-63
2022/11/12 22:24:54;;;;;;;7.20;4.20;;;15.10;76.60;;;;;;10451591;28;20589;-61
2022/11/12 22:29:54;;;;;;;5.50;4.18;;;15.10;76.50;;;;;;10451445;28;20059;-61
2022/11/12 22:34:55;;;;;;;5.70;3.80;;;15.10;76.50;;;;;;10450976;28;20072;-61
2022/11/12 22:39:55;;;;;;;6.50;3.80;;;15.10;76.50;;;;;;10450482;28;20119;-61
2022/11/12 22:44:56;;;;;;;6.50;3.33;;;15.10;76.40;;;;;;10451860;28;20440;-61
2022/11/12 22:49:57;;;;;;;7.22;4.57;;;15.10;76.40;;;;;;10448945;28;20071;-61
2022/11/12 22:54:57;;;;;;;4.55;3.53;;;15.10;76.40;;;;;;10433598;28;20059;-61
2022/11/12 22:59:58;;;;;;;6.05;3.47;;;15.10;76.30;;;;;;10449725;28;20444;-61
2022/11/12 23:04:59;;;;;;;6.63;4.60;;;15.10;76.30;;;;;;10449354;28;20028;-61
2022/11/12 23:09:59;;;;;;;5.03;3.60;;;15.10;76.30;;;;;;10432586;28;21014;-61
2022/11/12 23:15:00;;;;;;;4.82;3.85;;;15.00;76.20;;;;;;10450456;28;20110;-61
2022/11/12 23:20:01;;;;;;;6.45;4.10;;;15.10;76.20;;;;;;10448707;28;20075;-61
2022/11/12 23:25:01;;;;;;;5.68;3.42;;;15.00;76.20;;;;;;10450769;28;20389;-61
2022/11/12 23:30:03;;;;;;;5.50;3.80;;;15.00;76.10;;;;;;10448895;28;20017;-60
2022/11/12 23:35:05;;;;;;;5.18;3.88;;;15.00;76.00;;;;;;10447691;28;20048;-61
2022/11/12 23:40:06;;;;;;;5.43;3.17;;;15.00;76.00;;;;;;10448887;28;20041;-61
2022/11/12 23:45:08;;;;;;;5.43;4.03;;;15.00;76.00;;;;;;10431262;28;20011;-61
2022/11/12 23:50:09;;;;;;;6.25;3.83;;;15.00;76.00;;;;;;10449011;28;20083;-61
2022/11/12 23:55:09;;;;;;;4.93;3.75;;;15.00;75.90;;;;;;10447455;28;20098;-61
